createdAt,value
2022-12-07T00:00:32.523Z,992.61
2022-12-07T00:01:32.520Z,992.63
2022-12-07T00:02:32.645Z,992.61
2022-12-07T00:03:32.551Z,992.52
2022-12-07T00:04:32.514Z,992.61
2022-12-07T00:05:32.508Z,992.61
2022-12-07T00:06:32.479Z,992.62
2022-12-07T00:07:32.482Z,992.62
2022-12-07T00:08:33.455Z,992.54
2022-12-07T00:09:32.470Z,992.52
2022-12-07T00:10:32.462Z,992.60
2022-12-07T00:11:32.448Z,992.57
2022-12-07T00:12:32.460Z,992.55
2022-12-07T00:13:32.481Z,992.58
2022-12-07T00:14:32.451Z,992.52
2022-12-07T00:15:32.459Z,992.52
2022-12-07T00:16:32.479Z,992.47
2022-12-07T00:17:32.403Z,992.44
2022-12-07T00:18:32.406Z,992.48
2022-12-07T00:19:32.407Z,992.46
2022-12-07T00:20:32.392Z,992.46
2022-12-07T00:21:32.380Z,992.44
2022-12-07T00:22:32.399Z,992.44
2022-12-07T00:23:32.363Z,992.42
2022-12-07T00:24:32.371Z,992.42
2022-12-07T00:25:32.359Z,992.40
2022-12-07T00:26:32.359Z,992.36
2022-12-07T00:27:32.363Z,992.31
2022-12-07T00:28:32.336Z,992.31
2022-12-07T00:29:32.324Z,992.30
2022-12-07T00:30:32.324Z,992.26
2022-12-07T00:31:32.357Z,992.30
2022-12-07T00:32:32.332Z,992.24
2022-12-07T00:33:32.313Z,992.27
2022-12-07T00:34:32.304Z,992.24
2022-12-07T00:35:32.305Z,992.24
2022-12-07T00:36:32.275Z,992.25
2022-12-07T00:37:32.303Z,992.27
2022-12-07T00:38:32.295Z,992.22
2022-12-07T00:39:32.271Z,992.21
2022-12-07T00:40:32.247Z,992.22
2022-12-07T00:41:32.259Z,992.28
2022-12-07T00:42:32.236Z,992.21
2022-12-07T00:43:32.252Z,992.18
2022-12-07T00:44:32.232Z,992.19
2022-12-07T00:45:32.262Z,992.15
2022-12-07T00:46:32.263Z,992.21
2022-12-07T00:47:32.212Z,992.21
2022-12-07T00:48:32.195Z,992.22
2022-12-07T00:49:32.212Z,992.18
2022-12-07T00:50:32.192Z,992.18
2022-12-07T00:51:32.187Z,992.19
2022-12-07T00:52:32.175Z,992.13
2022-12-07T00:53:35.495Z,992.16
2022-12-07T00:54:33.191Z,992.07
2022-12-07T00:55:32.160Z,992.03
2022-12-07T00:56:32.147Z,992.05
2022-12-07T00:57:32.147Z,992.06
2022-12-07T00:58:32.128Z,992.08
2022-12-07T00:59:32.124Z,992.06
2022-12-07T01:00:32.136Z,991.95
2022-12-07T01:01:32.157Z,991.98
2022-12-07T01:02:32.107Z,991.97
2022-12-07T01:03:32.127Z,992.00
2022-12-07T01:04:32.100Z,991.92
2022-12-07T01:05:32.102Z,991.89
2022-12-07T01:06:32.096Z,991.94
2022-12-07T01:07:32.084Z,991.89
2022-12-07T01:08:32.064Z,991.90
2022-12-07T01:09:32.061Z,991.87
2022-12-07T01:10:32.052Z,991.96
2022-12-07T01:11:32.043Z,991.89
2022-12-07T01:12:32.055Z,991.92
2022-12-07T01:13:32.034Z,991.91
2022-12-07T01:14:32.019Z,991.89
2022-12-07T01:15:32.012Z,991.88
2022-12-07T01:16:32.214Z,991.99
2022-12-07T01:17:32.012Z,991.93
2022-12-07T01:18:31.993Z,991.92
2022-12-07T01:19:31.980Z,991.90
2022-12-07T01:20:31.975Z,991.89
2022-12-07T01:21:31.975Z,991.90
2022-12-07T01:22:31.972Z,991.84
2022-12-07T01:23:31.964Z,991.88
2022-12-07T01:24:31.980Z,991.87
2022-12-07T01:25:31.948Z,991.81
2022-12-07T01:26:31.942Z,991.81
2022-12-07T01:27:31.931Z,991.83
2022-12-07T01:28:31.928Z,991.82
2022-12-07T01:29:31.940Z,991.84
2022-12-07T01:30:31.950Z,991.77
2022-12-07T01:31:31.932Z,991.81
2022-12-07T01:32:31.899Z,991.77
2022-12-07T01:33:31.895Z,991.84
2022-12-07T01:34:31.899Z,991.78
2022-12-07T01:35:31.884Z,991.75
2022-12-07T01:36:31.883Z,991.78
2022-12-07T01:37:31.873Z,991.80
2022-12-07T01:38:31.857Z,991.78
2022-12-07T01:39:31.908Z,991.84
2022-12-07T01:40:31.860Z,991.80
2022-12-07T01:41:31.863Z,991.86
2022-12-07T01:42:31.823Z,991.80
2022-12-07T01:43:31.828Z,991.87
2022-12-07T01:44:31.835Z,991.82
2022-12-07T01:45:31.820Z,991.85
2022-12-07T01:46:31.922Z,991.83
2022-12-07T01:47:31.803Z,991.93
2022-12-07T01:48:31.791Z,991.84
2022-12-07T01:49:31.815Z,991.83
2022-12-07T01:50:31.778Z,991.85
2022-12-07T01:51:31.771Z,991.90
2022-12-07T01:52:31.776Z,991.88
2022-12-07T01:53:31.751Z,991.90
2022-12-07T01:54:31.782Z,991.90
2022-12-07T01:55:31.743Z,991.85
2022-12-07T01:56:31.791Z,991.90
2022-12-07T01:57:31.736Z,991.91
2022-12-07T01:58:31.763Z,991.83
2022-12-07T01:59:31.712Z,991.86
2022-12-07T02:00:31.720Z,991.87
2022-12-07T02:01:31.759Z,991.82
2022-12-07T02:02:31.769Z,991.86
2022-12-07T02:03:31.697Z,991.83
2022-12-07T02:04:31.680Z,991.77
2022-12-07T02:05:31.692Z,991.84
2022-12-07T02:06:31.676Z,991.78
2022-12-07T02:07:31.674Z,991.77
2022-12-07T02:08:31.656Z,991.80
2022-12-07T02:09:31.665Z,991.79
2022-12-07T02:10:31.640Z,991.79
2022-12-07T02:11:31.632Z,991.76
2022-12-07T02:12:31.628Z,991.70
2022-12-07T02:13:31.637Z,991.71
2022-12-07T02:14:31.618Z,991.67
2022-12-07T02:15:31.704Z,991.71
2022-12-07T02:16:31.604Z,991.67
2022-12-07T02:17:31.595Z,991.68
2022-12-07T02:18:31.587Z,991.73
2022-12-07T02:19:31.587Z,991.69
2022-12-07T02:20:31.586Z,991.78
2022-12-07T02:21:32.584Z,991.71
2022-12-07T02:22:31.568Z,991.68
2022-12-07T02:23:31.552Z,991.69
2022-12-07T02:24:31.548Z,991.68
2022-12-07T02:25:31.567Z,991.65
2022-12-07T02:26:31.545Z,991.63
2022-12-07T02:27:31.558Z,991.67
2022-12-07T02:28:31.532Z,991.61
2022-12-07T02:29:31.509Z,991.64
2022-12-07T02:30:31.504Z,991.68
2022-12-07T02:31:31.582Z,991.66
2022-12-07T02:32:31.520Z,991.64
2022-12-07T02:33:31.493Z,991.64
2022-12-07T02:34:31.496Z,991.61
2022-12-07T02:35:31.476Z,991.63
2022-12-07T02:36:31.468Z,991.59
2022-12-07T02:37:31.460Z,991.55
2022-12-07T02:38:31.463Z,991.63
2022-12-07T02:39:31.448Z,991.60
2022-12-07T02:40:31.443Z,991.66
2022-12-07T02:41:31.439Z,991.63
2022-12-07T02:42:31.447Z,991.59
2022-12-07T02:43:31.428Z,991.52
2022-12-07T02:44:31.417Z,991.53
2022-12-07T02:45:31.411Z,991.59
2022-12-07T02:46:31.496Z,991.57
2022-12-07T02:47:31.415Z,991.56
2022-12-07T02:48:31.404Z,991.51
2022-12-07T02:49:31.387Z,991.53
2022-12-07T02:50:31.375Z,991.55
2022-12-07T02:51:31.367Z,991.51
2022-12-07T02:52:31.376Z,991.47
2022-12-07T02:53:31.355Z,991.52
2022-12-07T02:54:31.348Z,991.55
2022-12-07T02:55:31.363Z,991.52
2022-12-07T02:56:31.339Z,991.54
2022-12-07T02:57:31.315Z,991.55
2022-12-07T02:58:31.325Z,991.48
2022-12-07T02:59:31.314Z,991.54
2022-12-07T03:00:31.323Z,991.47
2022-12-07T03:01:31.370Z,991.53
2022-12-07T03:02:31.424Z,991.52
2022-12-07T03:03:31.279Z,991.40
2022-12-07T03:04:31.278Z,991.41
2022-12-07T03:05:31.263Z,991.40
2022-12-07T03:06:31.267Z,991.44
2022-12-07T03:07:31.251Z,991.41
2022-12-07T03:08:31.243Z,991.49
2022-12-07T03:09:31.243Z,991.48
2022-12-07T03:10:31.232Z,991.51
2022-12-07T03:11:31.249Z,991.52
2022-12-07T03:12:31.219Z,991.51
2022-12-07T03:13:31.212Z,991.48
2022-12-07T03:14:31.211Z,991.48
2022-12-07T03:15:31.215Z,991.48
2022-12-07T03:16:31.211Z,991.49
2022-12-07T03:17:31.187Z,991.48
2022-12-07T03:18:31.187Z,991.46
2022-12-07T03:19:31.175Z,991.41
2022-12-07T03:20:31.180Z,991.48
2022-12-07T03:21:31.172Z,991.39
2022-12-07T03:22:31.154Z,991.43
2022-12-07T03:23:31.146Z,991.40
2022-12-07T03:24:31.172Z,991.37
2022-12-07T03:25:31.150Z,991.34
2022-12-07T03:26:31.122Z,991.32
2022-12-07T03:27:31.115Z,991.35
2022-12-07T03:28:31.111Z,991.25
2022-12-07T03:29:31.118Z,991.33
2022-12-07T03:30:31.118Z,991.30
2022-12-07T03:31:31.149Z,991.30
2022-12-07T03:32:31.095Z,991.37
2022-12-07T03:33:31.071Z,991.30
2022-12-07T03:34:31.072Z,991.34
2022-12-07T03:35:31.072Z,991.30
2022-12-07T03:36:31.071Z,991.34
2022-12-07T03:37:31.051Z,991.36
2022-12-07T03:38:31.042Z,991.35
2022-12-07T03:39:31.044Z,991.33
2022-12-07T03:40:31.027Z,991.36
2022-12-07T03:41:31.026Z,991.38
2022-12-07T03:42:31.035Z,991.39
2022-12-07T03:43:31.003Z,991.45
2022-12-07T03:44:31.003Z,991.42
2022-12-07T03:45:31.006Z,991.42
2022-12-07T03:46:31.022Z,991.38
2022-12-07T03:47:30.992Z,991.36
2022-12-07T03:48:30.990Z,991.44
2022-12-07T03:49:30.964Z,991.38
2022-12-07T03:50:30.962Z,991.39
2022-12-07T03:51:30.951Z,991.37
2022-12-07T03:52:30.963Z,991.35
2022-12-07T03:53:30.943Z,991.37
2022-12-07T03:54:30.943Z,991.36
2022-12-07T03:55:30.915Z,991.35
2022-12-07T03:56:30.915Z,991.35
2022-12-07T03:57:30.903Z,991.33
2022-12-07T03:58:30.906Z,991.30
2022-12-07T03:59:30.899Z,991.38
2022-12-07T04:00:30.889Z,991.36
2022-12-07T04:01:30.933Z,991.37
2022-12-07T04:02:30.948Z,991.37
2022-12-07T04:03:30.884Z,991.36
2022-12-07T04:04:30.858Z,991.34
2022-12-07T04:05:30.858Z,991.30
2022-12-07T04:06:30.862Z,991.34
2022-12-07T04:07:30.840Z,991.32
2022-12-07T04:08:30.855Z,991.30
2022-12-07T04:09:30.860Z,991.31
2022-12-07T04:10:30.813Z,991.31
2022-12-07T04:11:30.819Z,991.37
2022-12-07T04:12:30.814Z,991.24
2022-12-07T04:13:30.803Z,991.29
2022-12-07T04:14:30.835Z,991.27
2022-12-07T04:15:30.807Z,991.27
2022-12-07T04:16:30.868Z,991.32
2022-12-07T04:17:30.779Z,991.29
2022-12-07T04:18:30.771Z,991.30
2022-12-07T04:19:30.754Z,991.33
2022-12-07T04:20:30.778Z,991.34
2022-12-07T04:21:30.750Z,991.33
2022-12-07T04:22:30.730Z,991.33
2022-12-07T04:23:30.730Z,991.27
2022-12-07T04:24:30.774Z,991.30
2022-12-07T04:25:30.730Z,991.25
2022-12-07T04:26:30.730Z,991.18
2022-12-07T04:27:30.706Z,991.27
2022-12-07T04:28:30.703Z,991.22
2022-12-07T04:29:30.704Z,991.23
2022-12-07T04:30:30.725Z,991.27
2022-12-07T04:31:30.750Z,991.21
2022-12-07T04:32:30.670Z,991.21
2022-12-07T04:33:30.663Z,991.21
2022-12-07T04:34:30.658Z,991.19
2022-12-07T04:35:30.649Z,991.24
2022-12-07T04:36:30.657Z,991.22
2022-12-07T04:37:30.671Z,991.26
2022-12-07T04:38:30.631Z,991.26
2022-12-07T04:39:30.626Z,991.23
2022-12-07T04:40:30.626Z,991.33
2022-12-07T04:41:30.602Z,991.27
2022-12-07T04:42:30.847Z,991.24
2022-12-07T04:43:30.599Z,991.20
2022-12-07T04:44:30.594Z,991.26
2022-12-07T04:45:30.585Z,991.30
2022-12-07T04:46:30.637Z,991.30
2022-12-07T04:47:30.563Z,991.30
2022-12-07T04:48:30.580Z,991.34
2022-12-07T04:49:30.566Z,991.32
2022-12-07T04:50:31.546Z,991.40
2022-12-07T04:51:30.547Z,991.36
2022-12-07T04:52:30.534Z,991.35
2022-12-07T04:53:30.523Z,991.35
2022-12-07T04:54:30.538Z,991.30
2022-12-07T04:55:30.502Z,991.28
2022-12-07T04:56:31.508Z,991.24
2022-12-07T04:57:30.506Z,991.23
2022-12-07T04:58:30.498Z,991.25
2022-12-07T04:59:30.491Z,991.27
2022-12-07T05:00:30.547Z,991.31
2022-12-07T05:01:30.479Z,991.33
2022-12-07T05:02:30.512Z,991.29
2022-12-07T05:03:30.454Z,991.36
2022-12-07T05:04:30.445Z,991.36
2022-12-07T05:05:30.450Z,991.40
2022-12-07T05:06:30.442Z,991.34
2022-12-07T05:07:30.431Z,991.30
2022-12-07T05:08:30.423Z,991.35
2022-12-07T05:09:30.422Z,991.30
2022-12-07T05:10:30.402Z,991.34
2022-12-07T05:11:30.411Z,991.36
2022-12-07T05:12:30.443Z,991.37
2022-12-07T05:13:30.399Z,991.37
2022-12-07T05:14:30.385Z,991.33
2022-12-07T05:15:30.375Z,991.31
2022-12-07T05:16:30.533Z,991.32
2022-12-07T05:17:30.382Z,991.36
2022-12-07T05:18:30.418Z,991.40
2022-12-07T05:19:30.354Z,991.42
2022-12-07T05:20:30.339Z,991.41
2022-12-07T05:21:30.342Z,991.35
2022-12-07T05:22:30.354Z,991.33
2022-12-07T05:23:30.332Z,991.37
2022-12-07T05:24:30.307Z,991.38
2022-12-07T05:25:30.306Z,991.35
2022-12-07T05:26:30.289Z,991.35
2022-12-07T05:27:30.306Z,991.38
2022-12-07T05:28:30.311Z,991.32
2022-12-07T05:29:30.274Z,991.35
2022-12-07T05:30:30.274Z,991.31
2022-12-07T05:31:30.302Z,991.34
2022-12-07T05:32:30.255Z,991.35
2022-12-07T05:33:30.275Z,991.34
2022-12-07T05:34:30.241Z,991.36
2022-12-07T05:35:30.238Z,991.35
2022-12-07T05:36:30.234Z,991.33
2022-12-07T05:37:30.229Z,991.36
2022-12-07T05:38:30.226Z,991.35
2022-12-07T05:39:30.259Z,991.31
2022-12-07T05:40:30.218Z,991.25
2022-12-07T05:41:30.207Z,991.22
2022-12-07T05:42:30.191Z,991.25
2022-12-07T05:43:30.206Z,991.24
2022-12-07T05:44:30.175Z,991.21
2022-12-07T05:45:30.233Z,991.25
2022-12-07T05:46:30.189Z,991.27
2022-12-07T05:47:30.166Z,991.24
2022-12-07T05:48:30.166Z,991.21
2022-12-07T05:49:30.144Z,991.26
2022-12-07T05:50:30.150Z,991.26
2022-12-07T05:51:30.142Z,991.23
2022-12-07T05:52:30.130Z,991.25
2022-12-07T05:53:30.115Z,991.28
2022-12-07T05:54:30.114Z,991.24
2022-12-07T05:55:30.125Z,991.22
2022-12-07T05:56:30.106Z,991.25
2022-12-07T05:57:30.102Z,991.24
2022-12-07T05:58:30.082Z,991.22
2022-12-07T05:59:30.090Z,991.29
2022-12-07T06:00:30.117Z,991.21
2022-12-07T06:01:30.069Z,991.25
2022-12-07T06:02:30.117Z,991.21
2022-12-07T06:03:30.161Z,991.25
2022-12-07T06:04:30.059Z,991.24
2022-12-07T06:05:30.059Z,991.28
2022-12-07T06:06:30.164Z,991.26
2022-12-07T06:07:30.030Z,991.27
2022-12-07T06:08:30.113Z,991.22
2022-12-07T06:09:30.003Z,991.20
2022-12-07T06:10:31.006Z,991.19
2022-12-07T06:11:29.997Z,991.26
2022-12-07T06:12:29.994Z,991.24
2022-12-07T06:13:30.010Z,991.23
2022-12-07T06:14:29.979Z,991.24
2022-12-07T06:15:29.973Z,991.22
2022-12-07T06:16:30.127Z,991.12
2022-12-07T06:17:29.966Z,991.19
2022-12-07T06:18:29.954Z,991.17
2022-12-07T06:19:29.962Z,991.17
2022-12-07T06:20:29.937Z,991.15
2022-12-07T06:21:29.913Z,991.17
2022-12-07T06:22:29.927Z,991.15
2022-12-07T06:23:29.926Z,991.09
2022-12-07T06:24:29.926Z,991.14
2022-12-07T06:25:29.906Z,991.13
2022-12-07T06:26:29.902Z,991.12
2022-12-07T06:27:29.904Z,991.08
2022-12-07T06:28:29.894Z,991.11
2022-12-07T06:29:29.898Z,991.10
2022-12-07T06:30:29.874Z,991.13
2022-12-07T06:31:29.951Z,991.13
2022-12-07T06:32:29.869Z,991.13
2022-12-07T06:33:29.868Z,991.16
2022-12-07T06:34:29.863Z,991.15
2022-12-07T06:35:29.859Z,991.22
2022-12-07T06:36:29.846Z,991.23
2022-12-07T06:37:29.833Z,991.22
2022-12-07T06:38:29.867Z,991.19
2022-12-07T06:39:29.814Z,991.23
2022-12-07T06:40:29.823Z,991.22
2022-12-07T06:41:29.845Z,991.22
2022-12-07T06:42:29.834Z,991.21
2022-12-07T06:43:29.790Z,991.21
2022-12-07T06:44:29.781Z,991.27
2022-12-07T06:45:29.855Z,991.29
2022-12-07T06:46:29.820Z,991.26
2022-12-07T06:47:40.515Z,991.29
2022-12-07T06:48:31.770Z,991.31
2022-12-07T06:49:29.751Z,991.33
2022-12-07T06:50:29.745Z,991.26
2022-12-07T06:51:29.790Z,991.26
2022-12-07T06:52:29.745Z,991.24
2022-12-07T06:53:29.723Z,991.27
2022-12-07T06:54:29.720Z,991.30
2022-12-07T06:55:29.706Z,991.27
2022-12-07T06:56:29.701Z,991.31
2022-12-07T06:57:29.755Z,991.27
2022-12-07T06:58:29.731Z,991.40
2022-12-07T06:59:29.684Z,991.36
2022-12-07T07:00:29.674Z,991.32
2022-12-07T07:01:29.725Z,991.31
2022-12-07T07:02:29.788Z,991.36
2022-12-07T07:03:29.726Z,991.42
2022-12-07T07:04:29.655Z,991.42
2022-12-07T07:05:29.649Z,991.39
2022-12-07T07:06:29.661Z,991.45
2022-12-07T07:07:29.635Z,991.53
2022-12-07T07:08:29.655Z,991.43
2022-12-07T07:09:29.622Z,991.45
2022-12-07T07:10:29.614Z,991.43
2022-12-07T07:11:29.631Z,991.49
2022-12-07T07:12:29.602Z,991.51
2022-12-07T07:13:29.590Z,991.45
2022-12-07T07:14:29.583Z,991.47
2022-12-07T07:15:29.583Z,991.52
2022-12-07T07:16:29.610Z,991.48
2022-12-07T07:17:29.566Z,991.47
2022-12-07T07:18:29.571Z,991.38
2022-12-07T07:19:29.559Z,991.52
2022-12-07T07:20:29.546Z,991.47
2022-12-07T07:21:29.538Z,991.40
2022-12-07T07:22:29.550Z,991.46
2022-12-07T07:23:29.547Z,991.42
2022-12-07T07:24:29.518Z,991.39
2022-12-07T07:25:29.504Z,991.44
2022-12-07T07:26:29.497Z,991.38
2022-12-07T07:27:29.506Z,991.34
2022-12-07T07:28:29.507Z,991.41
2022-12-07T07:29:29.527Z,991.36
2022-12-07T07:30:29.694Z,991.40
2022-12-07T07:31:29.523Z,991.48
2022-12-07T07:32:29.458Z,991.49
2022-12-07T07:33:29.486Z,991.50
2022-12-07T07:34:29.448Z,991.45
2022-12-07T07:35:29.463Z,991.45
2022-12-07T07:36:29.458Z,991.47
2022-12-07T07:37:29.423Z,991.53
2022-12-07T07:38:29.468Z,991.50
2022-12-07T07:39:29.427Z,991.48
2022-12-07T07:40:29.415Z,991.44
2022-12-07T07:41:29.423Z,991.53
2022-12-07T07:42:29.406Z,991.47
2022-12-07T07:43:29.399Z,991.41
2022-12-07T07:44:34.812Z,991.48
2022-12-07T07:45:31.407Z,991.46
2022-12-07T07:46:29.428Z,991.46
2022-12-07T07:47:29.362Z,991.45
2022-12-07T07:48:29.359Z,991.48
2022-12-07T07:49:29.350Z,991.45
2022-12-07T07:50:29.335Z,991.51
2022-12-07T07:51:29.355Z,991.48
2022-12-07T07:52:29.338Z,991.52
2022-12-07T07:53:29.319Z,991.61
2022-12-07T07:54:29.308Z,991.55
2022-12-07T07:55:29.307Z,991.53
2022-12-07T07:56:29.322Z,991.56
2022-12-07T07:57:29.295Z,991.53
2022-12-07T07:58:29.292Z,991.54
2022-12-07T07:59:29.290Z,991.46
2022-12-07T08:00:29.278Z,991.54
2022-12-07T08:01:29.351Z,991.58
2022-12-07T08:02:29.263Z,991.57
2022-12-07T08:03:29.254Z,991.56
2022-12-07T08:04:29.315Z,991.61
2022-12-07T08:05:29.249Z,991.57
2022-12-07T08:06:32.342Z,991.60
2022-12-07T08:07:30.233Z,991.62
2022-12-07T08:08:29.258Z,991.57
2022-12-07T08:09:29.217Z,991.54
2022-12-07T08:10:29.214Z,991.57
2022-12-07T08:11:29.186Z,991.55
2022-12-07T08:12:29.210Z,991.54
2022-12-07T08:13:31.330Z,991.58
2022-12-07T08:14:30.177Z,991.50
2022-12-07T08:15:29.229Z,991.50
2022-12-07T08:16:29.233Z,991.47
2022-12-07T08:17:29.154Z,991.46
2022-12-07T08:18:29.173Z,991.55
2022-12-07T08:19:29.144Z,991.52
2022-12-07T08:20:29.130Z,991.48
2022-12-07T08:21:29.138Z,991.54
2022-12-07T08:22:29.140Z,991.52
2022-12-07T08:23:34.839Z,991.51
2022-12-07T08:24:31.126Z,991.53
2022-12-07T08:25:29.113Z,991.58
2022-12-07T08:26:29.082Z,991.56
2022-12-07T08:27:29.091Z,991.50
2022-12-07T08:28:29.106Z,991.50
2022-12-07T08:29:29.074Z,991.61
2022-12-07T08:30:29.110Z,991.51
2022-12-07T08:31:29.220Z,991.53
2022-12-07T08:32:29.055Z,991.51
2022-12-07T08:33:29.066Z,991.54
2022-12-07T08:34:29.038Z,991.50
2022-12-07T08:35:29.022Z,991.56
2022-12-07T08:36:29.025Z,991.54
2022-12-07T08:37:29.023Z,991.62
2022-12-07T08:38:31.892Z,991.61
2022-12-07T08:39:31.823Z,991.65
2022-12-07T08:40:30.010Z,991.69
2022-12-07T08:41:28.995Z,991.66
2022-12-07T08:42:29.008Z,991.68
2022-12-07T08:43:28.983Z,991.69
2022-12-07T08:44:28.981Z,991.65
2022-12-07T08:45:28.976Z,991.61
2022-12-07T08:46:28.997Z,991.65
2022-12-07T08:47:28.956Z,991.68
2022-12-07T08:48:28.954Z,991.70
2022-12-07T08:49:28.946Z,991.67
2022-12-07T08:50:28.951Z,991.71
2022-12-07T08:51:28.987Z,991.74
2022-12-07T08:52:29.922Z,991.77
2022-12-07T08:53:28.905Z,991.73
2022-12-07T08:54:28.916Z,991.75
2022-12-07T08:55:28.910Z,991.71
2022-12-07T08:56:28.890Z,991.69
2022-12-07T08:57:28.890Z,991.70
2022-12-07T08:58:28.884Z,991.76
2022-12-07T08:59:28.889Z,991.71
2022-12-07T09:00:28.868Z,991.68
2022-12-07T09:01:28.892Z,991.68
2022-12-07T09:02:28.856Z,991.62
2022-12-07T09:03:28.850Z,991.58
2022-12-07T09:04:28.931Z,991.58
2022-12-07T09:05:28.885Z,991.53
2022-12-07T09:06:28.913Z,991.50
2022-12-07T09:07:28.836Z,991.58
2022-12-07T09:08:28.851Z,991.64
2022-12-07T09:09:28.804Z,991.60
2022-12-07T09:10:29.803Z,991.59
2022-12-07T09:11:29.222Z,991.58
2022-12-07T09:12:29.793Z,991.59
2022-12-07T09:13:28.783Z,991.51
2022-12-07T09:14:28.798Z,991.54
2022-12-07T09:15:28.752Z,991.52
2022-12-07T09:16:28.793Z,991.55
2022-12-07T09:17:28.760Z,991.58
2022-12-07T09:18:28.744Z,991.65
2022-12-07T09:19:28.746Z,991.56
2022-12-07T09:20:28.729Z,991.64
2022-12-07T09:21:28.769Z,991.55
2022-12-07T09:22:28.712Z,991.40
2022-12-07T09:23:28.709Z,991.54
2022-12-07T09:24:28.724Z,991.53
2022-12-07T09:25:28.704Z,991.51
2022-12-07T09:26:28.699Z,991.52
2022-12-07T09:27:28.676Z,991.42
2022-12-07T09:28:28.706Z,991.49
2022-12-07T09:29:28.697Z,991.48
2022-12-07T09:30:28.705Z,991.48
2022-12-07T09:31:28.760Z,991.45
2022-12-07T09:32:28.681Z,991.44
2022-12-07T09:33:28.648Z,991.21
2022-12-07T09:34:28.672Z,991.10
2022-12-07T09:35:28.625Z,991.11
2022-12-07T09:36:28.631Z,991.11
2022-12-07T09:37:28.613Z,991.14
2022-12-07T09:38:28.601Z,991.30
2022-12-07T09:39:28.600Z,991.18
2022-12-07T09:40:28.596Z,991.07
2022-12-07T09:41:28.602Z,991.06
2022-12-07T09:42:28.642Z,991.36
2022-12-07T09:43:28.569Z,991.24
2022-12-07T09:44:28.564Z,991.18
2022-12-07T09:45:28.553Z,991.03
2022-12-07T09:46:28.634Z,990.98
2022-12-07T09:47:28.550Z,990.96
2022-12-07T09:48:28.531Z,991.04
2022-12-07T09:49:28.532Z,991.11
2022-12-07T09:50:28.520Z,991.04
2022-12-07T09:51:28.530Z,991.28
2022-12-07T09:52:28.503Z,991.22
2022-12-07T09:53:28.493Z,991.09
2022-12-07T09:54:28.485Z,990.97
2022-12-07T09:55:28.477Z,991.05
2022-12-07T09:56:28.496Z,991.03
2022-12-07T09:57:28.478Z,990.95
2022-12-07T09:58:28.454Z,990.91
2022-12-07T09:59:33.801Z,990.94
2022-12-07T10:00:30.453Z,990.94
2022-12-07T10:01:28.494Z,990.99
2022-12-07T10:02:28.458Z,991.13
2022-12-07T10:03:28.437Z,991.19
2022-12-07T10:04:28.475Z,991.13
2022-12-07T10:05:28.486Z,991.18
2022-12-07T10:06:28.429Z,990.78
2022-12-07T10:07:28.418Z,990.84
2022-12-07T10:08:28.448Z,990.85
2022-12-07T10:09:28.387Z,990.87
2022-12-07T10:10:29.867Z,990.91
2022-12-07T10:11:28.395Z,990.79
2022-12-07T10:12:28.380Z,990.87
2022-12-07T10:13:28.356Z,990.89
2022-12-07T10:14:44.147Z,990.90
2022-12-07T10:15:30.347Z,991.11
2022-12-07T10:16:28.440Z,990.77
2022-12-07T10:17:28.347Z,990.83
2022-12-07T10:18:28.323Z,991.15
2022-12-07T10:19:28.311Z,991.09
2022-12-07T10:20:28.340Z,991.00
2022-12-07T10:21:28.302Z,991.06
2022-12-07T10:22:31.851Z,991.07
2022-12-07T10:23:29.297Z,990.89
2022-12-07T10:24:28.284Z,990.72
2022-12-07T10:25:28.299Z,990.71
2022-12-07T10:26:28.299Z,990.71
2022-12-07T10:27:28.272Z,990.78
2022-12-07T10:28:28.272Z,990.69
2022-12-07T10:29:28.249Z,990.68
2022-12-07T10:30:28.293Z,990.65
2022-12-07T10:31:28.285Z,990.71
2022-12-07T10:32:28.244Z,990.98
2022-12-07T10:33:28.215Z,991.02
2022-12-07T10:34:28.213Z,991.03
2022-12-07T10:35:28.211Z,990.80
2022-12-07T10:36:28.196Z,990.80
2022-12-07T10:37:28.207Z,991.01
2022-12-07T10:38:28.195Z,991.05
2022-12-07T10:39:28.256Z,991.04
2022-12-07T10:40:28.173Z,990.92
2022-12-07T10:41:28.179Z,990.62
2022-12-07T10:42:28.170Z,990.75
2022-12-07T10:43:28.152Z,990.76
2022-12-07T10:44:28.149Z,990.75
2022-12-07T10:45:28.191Z,990.80
2022-12-07T10:46:28.320Z,990.74
2022-12-07T10:47:28.203Z,990.81
2022-12-07T10:48:28.119Z,990.80
2022-12-07T10:49:28.116Z,990.77
2022-12-07T10:50:28.107Z,990.86
2022-12-07T10:51:28.109Z,990.82
2022-12-07T10:52:28.083Z,990.81
2022-12-07T10:53:28.111Z,990.81
2022-12-07T10:54:28.075Z,990.84
2022-12-07T10:55:28.079Z,990.77
2022-12-07T10:56:28.079Z,990.74
2022-12-07T10:57:28.072Z,990.70
2022-12-07T10:58:28.072Z,990.60
2022-12-07T10:59:28.051Z,990.52
2022-12-07T11:00:28.097Z,990.52
2022-12-07T11:01:28.151Z,990.49
2022-12-07T11:02:28.075Z,990.40
2022-12-07T11:03:28.007Z,990.35
2022-12-07T11:04:28.030Z,990.34
2022-12-07T11:05:28.031Z,990.34
2022-12-07T11:06:27.991Z,990.21
2022-12-07T11:07:29.046Z,989.97
2022-12-07T11:08:28.103Z,989.92
2022-12-07T11:09:51.918Z,990.05
2022-12-07T11:10:29.971Z,990.11
2022-12-07T11:11:27.977Z,990.08
2022-12-07T11:12:27.956Z,990.17
2022-12-07T11:13:28.939Z,990.26
2022-12-07T11:14:28.971Z,990.22
2022-12-07T11:15:27.956Z,990.34
2022-12-07T11:16:28.014Z,990.33
2022-12-07T11:17:27.924Z,990.24
2022-12-07T11:18:27.936Z,990.23
2022-12-07T11:19:28.733Z,989.66
2022-12-07T11:20:28.899Z,989.71
2022-12-07T11:21:27.903Z,989.76
2022-12-07T11:22:27.894Z,989.78
2022-12-07T11:23:27.884Z,989.75
2022-12-07T11:24:27.879Z,989.75
2022-12-07T11:25:29.004Z,989.78
2022-12-07T11:26:28.863Z,989.78
2022-12-07T11:27:27.859Z,989.82
2022-12-07T11:28:27.849Z,989.82
2022-12-07T11:29:27.838Z,989.71
2022-12-07T11:30:27.854Z,989.73
2022-12-07T11:31:29.587Z,989.76
2022-12-07T11:32:28.824Z,989.92
2022-12-07T11:33:27.816Z,989.84
2022-12-07T11:34:27.797Z,989.99
2022-12-07T11:35:27.797Z,989.94
2022-12-07T11:36:27.795Z,989.93
2022-12-07T11:37:27.777Z,990.04
2022-12-07T11:38:28.430Z,990.06
2022-12-07T11:39:28.766Z,990.06
2022-12-07T11:40:27.754Z,990.10
2022-12-07T11:41:27.766Z,990.00
2022-12-07T11:42:27.735Z,989.78
2022-12-07T11:43:27.787Z,989.74
2022-12-07T11:44:27.845Z,989.98
2022-12-07T11:45:27.724Z,990.01
2022-12-07T11:46:27.797Z,990.00
2022-12-07T11:47:27.723Z,989.87
2022-12-07T11:48:27.739Z,990.00
2022-12-07T11:49:27.690Z,989.73
2022-12-07T11:50:27.688Z,989.62
2022-12-07T11:51:33.207Z,989.94
2022-12-07T11:52:29.673Z,989.79
2022-12-07T11:53:27.683Z,989.95
2022-12-07T11:54:27.663Z,989.62
2022-12-07T11:55:27.723Z,989.55
2022-12-07T11:56:27.667Z,989.48
2022-12-07T11:57:27.698Z,989.62
2022-12-07T11:58:27.628Z,989.63
2022-12-07T11:59:27.644Z,989.56
2022-12-07T12:00:27.619Z,989.64
2022-12-07T12:01:27.614Z,989.41
2022-12-07T12:02:27.684Z,989.51
2022-12-07T12:03:27.700Z,989.51
2022-12-07T12:04:27.607Z,989.49
2022-12-07T12:05:27.584Z,989.50
2022-12-07T12:06:27.583Z,989.52
2022-12-07T12:09:47.806Z,989.59
2022-12-07T12:10:29.533Z,989.56
2022-12-07T12:11:28.533Z,989.59
2022-12-07T12:14:33.265Z,989.57
2022-12-07T12:15:28.541Z,989.57
2022-12-07T12:16:27.553Z,989.59
2022-12-07T12:17:27.499Z,989.53
2022-12-07T12:18:27.497Z,989.59
2022-12-07T12:19:27.479Z,989.53
2022-12-07T12:20:27.489Z,989.51
2022-12-07T12:21:27.474Z,989.56
2022-12-07T12:22:27.458Z,989.59
2022-12-07T12:23:28.457Z,989.51
2022-12-07T12:24:27.454Z,989.51
2022-12-07T12:25:27.450Z,989.52
2022-12-07T12:26:27.484Z,989.57
2022-12-07T12:27:27.426Z,989.55
2022-12-07T12:28:27.428Z,989.60
2022-12-07T12:29:27.405Z,989.56
2022-12-07T12:30:27.405Z,989.42
2022-12-07T12:31:27.481Z,989.47
2022-12-07T12:32:27.381Z,989.57